sensor_id;sensor_type;location;lat;lon;timestamp;P1;durP1;ratioP1;P2;durP2;ratioP2
34184;SDS011;20454;48.100;11.776;2023-01-05T00:00:00;0.20;;;0.20;;
34184;SDS011;20454;48.100;11.776;2023-01-05T00:02:27;0.35;;;0.22;;
34184;SDS011;20454;48.100;11.776;2023-01-05T00:04:53;0.30;;;0.30;;
34184;SDS011;20454;48.100;11.776;2023-01-05T00:07:19;0.40;;;0.30;;
34184;SDS011;20454;48.100;11.776;2023-01-05T00:09:45;0.20;;;0.20;;
34184;SDS011;20454;48.100;11.776;2023-01-05T00:12:10;0.30;;;0.30;;
34184;SDS011;20454;48.100;11.776;2023-01-05T00:14:55;0.20;;;0.20;;
34184;SDS011;20454;48.100;11.776;2023-01-05T00:17:39;0.30;;;0.22;;
34184;SDS011;20454;48.100;11.776;2023-01-05T00:20:23;0.38;;;0.30;;
34184;SDS011;20454;48.100;11.776;2023-01-05T00:23:07;0.22;;;0.22;;
34184;SDS011;20454;48.100;11.776;2023-01-05T00:25:37;0.20;;;0.20;;
34184;SDS011;20454;48.100;11.776;2023-01-05T00:28:05;0.20;;;0.20;;
34184;SDS011;20454;48.100;11.776;2023-01-05T00:30:32;0.30;;;0.30;;
34184;SDS011;20454;48.100;11.776;2023-01-05T00:33:09;0.30;;;0.30;;
34184;SDS011;20454;48.100;11.776;2023-01-05T00:35:38;0.30;;;0.30;;
34184;SDS011;20454;48.100;11.776;2023-01-05T00:38:04;1.10;;;0.30;;
34184;SDS011;20454;48.100;11.776;2023-01-05T00:40:31;0.20;;;0.20;;
34184;SDS011;20454;48.100;11.776;2023-01-05T00:42:58;0.30;;;0.30;;
34184;SDS011;20454;48.100;11.776;2023-01-05T00:45:24;0.20;;;0.20;;
34184;SDS011;20454;48.100;11.776;2023-01-05T00:47:50;0.25;;;0.25;;
34184;SDS011;20454;48.100;11.776;2023-01-05T00:50:18;0.22;;;0.22;;
34184;SDS011;20454;48.100;11.776;2023-01-05T00:52:45;1.85;;;0.20;;
34184;SDS011;20454;48.100;11.776;2023-01-05T00:55:11;0.30;;;0.30;;
34184;SDS011;20454;48.100;11.776;2023-01-05T00:57:38;0.30;;;0.30;;
34184;SDS011;20454;48.100;11.776;2023-01-05T01:00:04;0.20;;;0.20;;
34184;SDS011;20454;48.100;11.776;2023-01-05T01:02:35;0.20;;;0.20;;
34184;SDS011;20454;48.100;11.776;2023-01-05T01:05:00;0.20;;;0.20;;
34184;SDS011;20454;48.100;11.776;2023-01-05T01:07:26;0.20;;;0.20;;
34184;SDS011;20454;48.100;11.776;2023-01-05T01:09:52;0.35;;;0.35;;
34184;SDS011;20454;48.100;11.776;2023-01-05T01:12:18;1.00;;;0.20;;
34184;SDS011;20454;48.100;11.776;2023-01-05T01:14:47;0.35;;;0.20;;
34184;SDS011;20454;48.100;11.776;2023-01-05T01:17:13;0.28;;;0.28;;
34184;SDS011;20454;48.100;11.776;2023-01-05T01:19:41;0.28;;;0.28;;
34184;SDS011;20454;48.100;11.776;2023-01-05T01:22:07;0.30;;;0.30;;
34184;SDS011;20454;48.100;11.776;2023-01-05T01:24:33;0.20;;;0.20;;
34184;SDS011;20454;48.100;11.776;2023-01-05T01:26:58;0.20;;;0.20;;
34184;SDS011;20454;48.100;11.776;2023-01-05T01:29:24;0.20;;;0.20;;
34184;SDS011;20454;48.100;11.776;2023-01-05T01:31:51;0.30;;;0.30;;
34184;SDS011;20454;48.100;11.776;2023-01-05T01:34:18;0.20;;;0.20;;
34184;SDS011;20454;48.100;11.776;2023-01-05T01:36:44;0.25;;;0.25;;
34184;SDS011;20454;48.100;11.776;2023-01-05T01:39:10;0.20;;;0.20;;
34184;SDS011;20454;48.100;11.776;2023-01-05T01:41:37;0.20;;;0.20;;
34184;SDS011;20454;48.100;11.776;2023-01-05T01:44:44;0.38;;;0.28;;
34184;SDS011;20454;48.100;11.776;2023-01-05T01:47:28;0.45;;;0.20;;
34184;SDS011;20454;48.100;11.776;2023-01-05T01:50:18;0.25;;;0.25;;
34184;SDS011;20454;48.100;11.776;2023-01-05T01:52:59;0.20;;;0.20;;
34184;SDS011;20454;48.100;11.776;2023-01-05T01:55:40;0.20;;;0.20;;
34184;SDS011;20454;48.100;11.776;2023-01-05T01:58:07;0.20;;;0.20;;
34184;SDS011;20454;48.100;11.776;2023-01-05T02:00:41;0.20;;;0.20;;
34184;SDS011;20454;48.100;11.776;2023-01-05T02:03:07;0.20;;;0.20;;
34184;SDS011;20454;48.100;11.776;2023-01-05T02:05:34;0.30;;;0.30;;
34184;SDS011;20454;48.100;11.776;2023-01-05T02:08:03;0.20;;;0.20;;
34184;SDS011;20454;48.100;11.776;2023-01-05T02:13:35;0.20;;;0.20;;
34184;SDS011;20454;48.100;11.776;2023-01-05T02:16:38;0.20;;;0.20;;
34184;SDS011;20454;48.100;11.776;2023-01-05T02:19:54;0.20;;;0.20;;
34184;SDS011;20454;48.100;11.776;2023-01-05T02:34:39;0.25;;;0.25;;
34184;SDS011;20454;48.100;11.776;2023-01-05T02:40:36;0.68;;;0.30;;
34184;SDS011;20454;48.100;11.776;2023-01-05T02:43:12;0.22;;;0.22;;
34184;SDS011;20454;48.100;11.776;2023-01-05T02:45:44;1.77;;;0.40;;
34184;SDS011;20454;48.100;11.776;2023-01-05T02:48:11;0.40;;;0.25;;
34184;SDS011;20454;48.100;11.776;2023-01-05T02:50:55;0.30;;;0.30;;
34184;SDS011;20454;48.100;11.776;2023-01-05T02:53:35;0.30;;;0.30;;
34184;SDS011;20454;48.100;11.776;2023-01-05T02:56:07;0.20;;;0.20;;
34184;SDS011;20454;48.100;11.776;2023-01-05T02:58:40;2.50;;;0.30;;
34184;SDS011;20454;48.100;11.776;2023-01-05T05:31:40;0.47;;;0.47;;
34184;SDS011;20454;48.100;11.776;2023-01-05T05:34:05;0.30;;;0.30;;
34184;SDS011;20454;48.100;11.776;2023-01-05T05:36:31;0.20;;;0.20;;
34184;SDS011;20454;48.100;11.776;2023-01-05T05:38:57;0.20;;;0.20;;
34184;SDS011;20454;48.100;11.776;2023-01-05T05:41:23;0.30;;;0.30;;
34184;SDS011;20454;48.100;11.776;2023-01-05T05:43:49;1.27;;;0.32;;
34184;SDS011;20454;48.100;11.776;2023-01-05T05:46:15;0.30;;;0.30;;
34184;SDS011;20454;48.100;11.776;2023-01-05T05:48:40;0.20;;;0.20;;
34184;SDS011;20454;48.100;11.776;2023-01-05T05:51:06;0.20;;;0.20;;
34184;SDS011;20454;48.100;11.776;2023-01-05T05:53:32;0.30;;;0.30;;
34184;SDS011;20454;48.100;11.776;2023-01-05T05:55:58;0.32;;;0.32;;
34184;SDS011;20454;48.100;11.776;2023-01-05T05:58:23;0.40;;;0.40;;
34184;SDS011;20454;48.100;11.776;2023-01-05T06:00:49;0.38;;;0.38;;
34184;SDS011;20454;48.100;11.776;2023-01-05T06:03:15;0.30;;;0.30;;
34184;SDS011;20454;48.100;11.776;2023-01-05T06:05:41;0.30;;;0.30;;
34184;SDS011;20454;48.100;11.776;2023-01-05T06:08:08;0.35;;;0.30;;
34184;SDS011;20454;48.100;11.776;2023-01-05T06:10:33;0.30;;;0.30;;
34184;SDS011;20454;48.100;11.776;2023-01-05T06:12:59;0.20;;;0.20;;
34184;SDS011;20454;48.100;11.776;2023-01-05T06:15:25;0.43;;;0.20;;
34184;SDS011;20454;48.100;11.776;2023-01-05T06:17:50;0.30;;;0.30;;
34184;SDS011;20454;48.100;11.776;2023-01-05T06:20:16;1.40;;;0.40;;
34184;SDS011;20454;48.100;11.776;2023-01-05T06:22:42;0.30;;;0.30;;
34184;SDS011;20454;48.100;11.776;2023-01-05T06:25:09;0.30;;;0.30;;
34184;SDS011;20454;48.100;11.776;2023-01-05T06:27:35;0.68;;;0.45;;
34184;SDS011;20454;48.100;11.776;2023-01-05T06:30:01;0.90;;;0.40;;
34184;SDS011;20454;48.100;11.776;2023-01-05T06:32:28;0.30;;;0.30;;
34184;SDS011;20454;48.100;11.776;2023-01-05T06:34:54;0.30;;;0.30;;
34184;SDS011;20454;48.100;11.776;2023-01-05T06:37:19;0.55;;;0.40;;
34184;SDS011;20454;48.100;11.776;2023-01-05T06:39:45;0.20;;;0.20;;
34184;SDS011;20454;48.100;11.776;2023-01-05T06:42:11;0.38;;;0.30;;
34184;SDS011;20454;48.100;11.776;2023-01-05T06:44:37;0.55;;;0.40;;
34184;SDS011;20454;48.100;11.776;2023-01-05T06:47:02;0.30;;;0.30;;
34184;SDS011;20454;48.100;11.776;2023-01-05T06:49:28;0.28;;;0.28;;
34184;SDS011;20454;48.100;11.776;2023-01-05T06:51:54;0.60;;;0.30;;
34184;SDS011;20454;48.100;11.776;2023-01-05T06:54:19;1.05;;;0.50;;
34184;SDS011;20454;48.100;11.776;2023-01-05T06:56:45;0.30;;;0.30;;
34184;SDS011;20454;48.100;11.776;2023-01-05T06:59:11;0.30;;;0.30;;
34184;SDS011;20454;48.100;11.776;2023-01-05T07:01:37;0.50;;;0.50;;
34184;SDS011;20454;48.100;11.776;2023-01-05T07:04:03;0.30;;;0.30;;
34184;SDS011;20454;48.100;11.776;2023-01-05T07:06:29;0.50;;;0.50;;
34184;SDS011;20454;48.100;11.776;2023-01-05T07:08:55;0.30;;;0.30;;
34184;SDS011;20454;48.100;11.776;2023-01-05T07:11:20;0.40;;;0.40;;
34184;SDS011;20454;48.100;11.776;2023-01-05T07:13:47;0.52;;;0.52;;
34184;SDS011;20454;48.100;11.776;2023-01-05T07:16:14;0.20;;;0.20;;
34184;SDS011;20454;48.100;11.776;2023-01-05T07:18:41;1.35;;;0.38;;
34184;SDS011;20454;48.100;11.776;2023-01-05T07:21:07;0.30;;;0.30;;
34184;SDS011;20454;48.100;11.776;2023-01-05T07:23:33;0.30;;;0.30;;
34184;SDS011;20454;48.100;11.776;2023-01-05T07:26:02;0.40;;;0.40;;
34184;SDS011;20454;48.100;11.776;2023-01-05T07:28:33;0.30;;;0.30;;
34184;SDS011;20454;48.100;11.776;2023-01-05T07:31:00;1.05;;;0.30;;
34184;SDS011;20454;48.100;11.776;2023-01-05T07:33:26;0.40;;;0.40;;
34184;SDS011;20454;48.100;11.776;2023-01-05T07:35:51;1.17;;;0.30;;
34184;SDS011;20454;48.100;11.776;2023-01-05T07:38:17;0.20;;;0.20;;
34184;SDS011;20454;48.100;11.776;2023-01-05T07:40:43;0.25;;;0.25;;
34184;SDS011;20454;48.100;11.776;2023-01-05T07:43:09;0.57;;;0.35;;
34184;SDS011;20454;48.100;11.776;2023-01-05T07:45:35;0.20;;;0.20;;
34184;SDS011;20454;48.100;11.776;2023-01-05T07:48:01;0.82;;;0.82;;
34184;SDS011;20454;48.100;11.776;2023-01-05T07:50:27;0.30;;;0.30;;
34184;SDS011;20454;48.100;11.776;2023-01-05T07:52:53;0.30;;;0.30;;
34184;SDS011;20454;48.100;11.776;2023-01-05T07:55:19;0.40;;;0.40;;
34184;SDS011;20454;48.100;11.776;2023-01-05T07:57:45;0.20;;;0.20;;
34184;SDS011;20454;48.100;11.776;2023-01-05T08:00:11;0.82;;;0.82;;
34184;SDS011;20454;48.100;11.776;2023-01-05T08:02:39;0.22;;;0.22;;
34184;SDS011;20454;48.100;11.776;2023-01-05T08:05:06;0.93;;;0.25;;
34184;SDS011;20454;48.100;11.776;2023-01-05T08:07:33;2.35;;;0.30;;
34184;SDS011;20454;48.100;11.776;2023-01-05T08:10:00;0.30;;;0.30;;
34184;SDS011;20454;48.100;11.776;2023-01-05T08:12:44;0.50;;;0.40;;
34184;SDS011;20454;48.100;11.776;2023-01-05T08:15:29;0.30;;;0.30;;
34184;SDS011;20454;48.100;11.776;2023-01-05T08:17:54;0.30;;;0.30;;
34184;SDS011;20454;48.100;11.776;2023-01-05T08:20:20;0.65;;;0.50;;
34184;SDS011;20454;48.100;11.776;2023-01-05T08:22:49;0.65;;;0.30;;
34184;SDS011;20454;48.100;11.776;2023-01-05T08:25:16;2.13;;;1.13;;
34184;SDS011;20454;48.100;11.776;2023-01-05T08:27:43;4.13;;;2.25;;
34184;SDS011;20454;48.100;11.776;2023-01-05T08:30:10;7.25;;;3.83;;
34184;SDS011;20454;48.100;11.776;2023-01-05T08:32:37;0.60;;;0.60;;
34184;SDS011;20454;48.100;11.776;2023-01-05T08:35:03;0.80;;;0.80;;
34184;SDS011;20454;48.100;11.776;2023-01-05T09:44:53;0.50;;;0.50;;
34184;SDS011;20454;48.100;11.776;2023-01-05T09:47:28;0.60;;;0.60;;
34184;SDS011;20454;48.100;11.776;2023-01-05T09:50:20;0.90;;;0.80;;
34184;SDS011;20454;48.100;11.776;2023-01-05T09:52:55;4.93;;;4.32;;
34184;SDS011;20454;48.100;11.776;2023-01-05T09:55:24;1.15;;;0.80;;
34184;SDS011;20454;48.100;11.776;2023-01-05T09:57:59;0.40;;;0.40;;
34184;SDS011;20454;48.100;11.776;2023-01-05T10:01:06;0.60;;;0.60;;
34184;SDS011;20454;48.100;11.776;2023-01-05T10:03:44;0.43;;;0.43;;
34184;SDS011;20454;48.100;11.776;2023-01-05T10:06:24;2.10;;;0.50;;
34184;SDS011;20454;48.100;11.776;2023-01-05T10:08:56;0.40;;;0.40;;
34184;SDS011;20454;48.100;11.776;2023-01-05T10:11:36;0.47;;;0.30;;
34184;SDS011;20454;48.100;11.776;2023-01-05T10:14:37;0.30;;;0.30;;
34184;SDS011;20454;48.100;11.776;2023-01-05T10:17:19;0.32;;;0.32;;
34184;SDS011;20454;48.100;11.776;2023-01-05T10:19:47;8.15;;;0.60;;
34184;SDS011;20454;48.100;11.776;2023-01-05T10:28:40;6.43;;;0.70;;
34184;SDS011;20454;48.100;11.776;2023-01-05T10:42:34;0.50;;;0.50;;
34184;SDS011;20454;48.100;11.776;2023-01-05T10:45:40;0.40;;;0.40;;
34184;SDS011;20454;48.100;11.776;2023-01-05T10:48:16;1.58;;;0.50;;
34184;SDS011;20454;48.100;11.776;2023-01-05T10:50:47;0.43;;;0.40;;
34184;SDS011;20454;48.100;11.776;2023-01-05T10:53:14;1.80;;;0.50;;
34184;SDS011;20454;48.100;11.776;2023-01-05T10:55:46;0.40;;;0.40;;
34184;SDS011;20454;48.100;11.776;2023-01-05T10:58:30;0.40;;;0.40;;
34184;SDS011;20454;48.100;11.776;2023-01-05T11:01:05;0.95;;;0.63;;
34184;SDS011;20454;48.100;11.776;2023-01-05T11:03:55;1.45;;;0.40;;
34184;SDS011;20454;48.100;11.776;2023-01-05T11:06:33;1.15;;;0.40;;
34184;SDS011;20454;48.100;11.776;2023-01-05T11:09:22;0.43;;;0.43;;
34184;SDS011;20454;48.100;11.776;2023-01-05T11:12:02;0.30;;;0.30;;
34184;SDS011;20454;48.100;11.776;2023-01-05T11:14:31;0.45;;;0.45;;
34184;SDS011;20454;48.100;11.776;2023-01-05T11:17:02;0.40;;;0.40;;
34184;SDS011;20454;48.100;11.776;2023-01-05T11:19:31;0.40;;;0.40;;
34184;SDS011;20454;48.100;11.776;2023-01-05T11:22:00;0.70;;;0.60;;
34184;SDS011;20454;48.100;11.776;2023-01-05T11:24:28;0.40;;;0.40;;
34184;SDS011;20454;48.100;11.776;2023-01-05T11:27:03;0.40;;;0.40;;
34184;SDS011;20454;48.100;11.776;2023-01-05T11:29:44;0.70;;;0.70;;
34184;SDS011;20454;48.100;11.776;2023-01-05T11:32:10;0.40;;;0.40;;
34184;SDS011;20454;48.100;11.776;2023-01-05T11:34:41;2.15;;;0.88;;
34184;SDS011;20454;48.100;11.776;2023-01-05T11:42:12;0.40;;;0.40;;
34184;SDS011;20454;48.100;11.776;2023-01-05T11:45:06;0.70;;;0.70;;
34184;SDS011;20454;48.100;11.776;2023-01-05T11:48:00;0.73;;;0.70;;
34184;SDS011;20454;48.100;11.776;2023-01-05T11:50:32;1.10;;;1.10;;
34184;SDS011;20454;48.100;11.776;2023-01-05T11:56:42;0.50;;;0.50;;
34184;SDS011;20454;48.100;11.776;2023-01-05T11:58:49;8.30;;;4.43;;
34184;SDS011;20454;48.100;11.776;2023-01-05T12:07:01;1.45;;;0.38;;
34184;SDS011;20454;48.100;11.776;2023-01-05T12:09:41;0.60;;;0.60;;
34184;SDS011;20454;48.100;11.776;2023-01-05T12:12:51;0.50;;;0.50;;
34184;SDS011;20454;48.100;11.776;2023-01-05T12:25:03;0.85;;;0.60;;
34184;SDS011;20454;48.100;11.776;2023-01-05T12:30:53;1.05;;;0.77;;
34184;SDS011;20454;48.100;11.776;2023-01-05T12:48:36;0.90;;;0.68;;
34184;SDS011;20454;48.100;11.776;2023-01-05T12:51:29;1.38;;;1.27;;
34184;SDS011;20454;48.100;11.776;2023-01-05T12:57:14;0.45;;;0.45;;
34184;SDS011;20454;48.100;11.776;2023-01-05T12:59:50;0.80;;;0.57;;
34184;SDS011;20454;48.100;11.776;2023-01-05T13:02:36;0.52;;;0.50;;
34184;SDS011;20454;48.100;11.776;2023-01-05T13:05:21;2.10;;;0.60;;
34184;SDS011;20454;48.100;11.776;2023-01-05T13:08:18;1.85;;;0.85;;
34184;SDS011;20454;48.100;11.776;2023-01-05T13:13:19;0.60;;;0.60;;
34184;SDS011;20454;48.100;11.776;2023-01-05T13:18:29;0.60;;;0.60;;
34184;SDS011;20454;48.100;11.776;2023-01-05T13:20:59;0.40;;;0.40;;
34184;SDS011;20454;48.100;11.776;2023-01-05T13:26:05;1.02;;;0.50;;
34184;SDS011;20454;48.100;11.776;2023-01-05T13:28:39;0.43;;;0.40;;
34184;SDS011;20454;48.100;11.776;2023-01-05T13:34:21;0.43;;;0.43;;
34184;SDS011;20454;48.100;11.776;2023-01-05T13:48:43;1.48;;;1.15;;
34184;SDS011;20454;48.100;11.776;2023-01-05T13:51:35;3.13;;;0.60;;
34184;SDS011;20454;48.100;11.776;2023-01-05T13:54:27;1.27;;;0.65;;
34184;SDS011;20454;48.100;11.776;2023-01-05T13:56:58;0.65;;;0.52;;
34184;SDS011;20454;48.100;11.776;2023-01-05T13:59:30;1.10;;;0.70;;
34184;SDS011;20454;48.100;11.776;2023-01-05T14:01:58;0.80;;;0.77;;
34184;SDS011;20454;48.100;11.776;2023-01-05T14:04:25;1.27;;;1.00;;
34184;SDS011;20454;48.100;11.776;2023-01-05T14:07:00;2.60;;;1.25;;
34184;SDS011;20454;48.100;11.776;2023-01-05T14:33:47;1.35;;;1.02;;
34184;SDS011;20454;48.100;11.776;2023-01-05T14:39:23;2.92;;;1.80;;
34184;SDS011;20454;48.100;11.776;2023-01-05T14:44:34;1.08;;;0.70;;
34184;SDS011;20454;48.100;11.776;2023-01-05T14:47:17;1.20;;;0.80;;
34184;SDS011;20454;48.100;11.776;2023-01-05T15:01:00;3.38;;;1.33;;
34184;SDS011;20454;48.100;11.776;2023-01-05T15:03:47;2.03;;;1.15;;
34184;SDS011;20454;48.100;11.776;2023-01-05T15:13:03;2.22;;;0.93;;
34184;SDS011;20454;48.100;11.776;2023-01-05T15:16:42;3.25;;;1.00;;
34184;SDS011;20454;48.100;11.776;2023-01-05T15:22:40;2.80;;;2.33;;
34184;SDS011;20454;48.100;11.776;2023-01-05T15:25:34;3.95;;;3.15;;
34184;SDS011;20454;48.100;11.776;2023-01-05T15:33:53;4.72;;;3.40;;
34184;SDS011;20454;48.100;11.776;2023-01-05T15:36:58;5.28;;;3.00;;
34184;SDS011;20454;48.100;11.776;2023-01-05T15:39:48;2.53;;;2.30;;
34184;SDS011;20454;48.100;11.776;2023-01-05T15:42:26;3.45;;;2.78;;
34184;SDS011;20454;48.100;11.776;2023-01-05T15:45:24;3.85;;;2.55;;
34184;SDS011;20454;48.100;11.776;2023-01-05T15:48:10;1.70;;;1.50;;
34184;SDS011;20454;48.100;11.776;2023-01-05T15:50:45;2.22;;;1.48;;
34184;SDS011;20454;48.100;11.776;2023-01-05T15:53:30;4.57;;;2.40;;
34184;SDS011;20454;48.100;11.776;2023-01-05T15:58:56;3.03;;;1.98;;
34184;SDS011;20454;48.100;11.776;2023-01-05T16:01:23;2.90;;;1.92;;
34184;SDS011;20454;48.100;11.776;2023-01-05T16:03:49;3.83;;;1.90;;
34184;SDS011;20454;48.100;11.776;2023-01-05T16:08:48;6.25;;;3.00;;
34184;SDS011;20454;48.100;11.776;2023-01-05T16:11:27;3.25;;;2.92;;
34184;SDS011;20454;48.100;11.776;2023-01-05T16:14:03;3.35;;;1.90;;
34184;SDS011;20454;48.100;11.776;2023-01-05T16:16:37;5.07;;;2.13;;
34184;SDS011;20454;48.100;11.776;2023-01-05T16:22:44;3.03;;;2.17;;
34184;SDS011;20454;48.100;11.776;2023-01-05T16:25:22;7.25;;;4.38;;
34184;SDS011;20454;48.100;11.776;2023-01-05T16:27:54;4.93;;;2.75;;
34184;SDS011;20454;48.100;11.776;2023-01-05T16:30:39;2.88;;;2.22;;
34184;SDS011;20454;48.100;11.776;2023-01-05T16:35:48;4.60;;;2.30;;
34184;SDS011;20454;48.100;11.776;2023-01-05T16:40:55;4.60;;;1.98;;
34184;SDS011;20454;48.100;11.776;2023-01-05T16:43:35;6.65;;;2.70;;
34184;SDS011;20454;48.100;11.776;2023-01-05T16:48:58;4.38;;;2.10;;
34184;SDS011;20454;48.100;11.776;2023-01-05T16:54:04;2.00;;;1.20;;
34184;SDS011;20454;48.100;11.776;2023-01-05T16:59:52;2.13;;;1.63;;
34184;SDS011;20454;48.100;11.776;2023-01-05T17:05:12;2.95;;;1.65;;
34184;SDS011;20454;48.100;11.776;2023-01-05T17:07:42;5.85;;;2.75;;
34184;SDS011;20454;48.100;11.776;2023-01-05T17:10:14;6.82;;;2.67;;
34184;SDS011;20454;48.100;11.776;2023-01-05T17:12:45;3.83;;;2.25;;
34184;SDS011;20454;48.100;11.776;2023-01-05T17:15:24;8.30;;;2.20;;
34184;SDS011;20454;48.100;11.776;2023-01-05T17:17:54;2.92;;;2.22;;
34184;SDS011;20454;48.100;11.776;2023-01-05T17:20:24;2.08;;;1.85;;
34184;SDS011;20454;48.100;11.776;2023-01-05T17:22:58;2.03;;;1.88;;
34184;SDS011;20454;48.100;11.776;2023-01-05T17:25:25;2.10;;;1.90;;
34184;SDS011;20454;48.100;11.776;2023-01-05T17:27:56;4.30;;;1.95;;
34184;SDS011;20454;48.100;11.776;2023-01-05T17:30:22;6.13;;;2.72;;
34184;SDS011;20454;48.100;11.776;2023-01-05T17:32:47;6.88;;;2.63;;
34184;SDS011;20454;48.100;11.776;2023-01-05T17:35:13;6.18;;;3.83;;
34184;SDS011;20454;48.100;11.776;2023-01-05T17:37:39;6.32;;;2.53;;
34184;SDS011;20454;48.100;11.776;2023-01-05T17:40:05;2.97;;;2.25;;
34184;SDS011;20454;48.100;11.776;2023-01-05T17:42:39;5.00;;;3.17;;
34184;SDS011;20454;48.100;11.776;2023-01-05T17:45:25;4.88;;;4.40;;
34184;SDS011;20454;48.100;11.776;2023-01-05T19:53:30;8.15;;;4.20;;
34184;SDS011;20454;48.100;11.776;2023-01-05T19:56:02;2.95;;;2.65;;
34184;SDS011;20454;48.100;11.776;2023-01-05T19:58:32;4.88;;;3.05;;
34184;SDS011;20454;48.100;11.776;2023-01-05T20:01:05;2.88;;;2.60;;
34184;SDS011;20454;48.100;11.776;2023-01-05T20:03:36;4.45;;;2.75;;
34184;SDS011;20454;48.100;11.776;2023-01-05T20:06:05;2.78;;;2.47;;
34184;SDS011;20454;48.100;11.776;2023-01-05T20:08:34;4.05;;;2.92;;
34184;SDS011;20454;48.100;11.776;2023-01-05T20:11:08;3.53;;;2.47;;
34184;SDS011;20454;48.100;11.776;2023-01-05T20:13:36;2.00;;;1.75;;
34184;SDS011;20454;48.100;11.776;2023-01-05T20:16:07;2.58;;;2.10;;
34184;SDS011;20454;48.100;11.776;2023-01-05T20:18:35;2.80;;;2.53;;
34184;SDS011;20454;48.100;11.776;2023-01-05T20:21:03;3.05;;;2.42;;
34184;SDS011;20454;48.100;11.776;2023-01-05T20:23:32;2.78;;;2.58;;
34184;SDS011;20454;48.100;11.776;2023-01-05T20:26:18;2.42;;;1.98;;
34184;SDS011;20454;48.100;11.776;2023-01-05T20:28:46;2.20;;;1.80;;
34184;SDS011;20454;48.100;11.776;2023-01-05T20:31:19;1.20;;;1.10;;
34184;SDS011;20454;48.100;11.776;2023-01-05T20:33:59;2.90;;;2.30;;
34184;SDS011;20454;48.100;11.776;2023-01-05T20:36:29;1.80;;;1.70;;
34184;SDS011;20454;48.100;11.776;2023-01-05T20:38:56;2.53;;;2.00;;
34184;SDS011;20454;48.100;11.776;2023-01-05T20:41:34;1.50;;;1.40;;
34184;SDS011;20454;48.100;11.776;2023-01-05T20:44:03;1.60;;;1.50;;
34184;SDS011;20454;48.100;11.776;2023-01-05T20:46:33;3.85;;;1.55;;
34184;SDS011;20454;48.100;11.776;2023-01-05T20:49:02;2.35;;;2.15;;
34184;SDS011;20454;48.100;11.776;2023-01-05T20:51:28;3.75;;;1.83;;
34184;SDS011;20454;48.100;11.776;2023-01-05T20:53:55;2.50;;;1.70;;
34184;SDS011;20454;48.100;11.776;2023-01-05T20:56:25;2.25;;;2.05;;
34184;SDS011;20454;48.100;11.776;2023-01-05T20:58:53;1.70;;;1.60;;
34184;SDS011;20454;48.100;11.776;2023-01-05T21:01:19;2.17;;;1.98;;
34184;SDS011;20454;48.100;11.776;2023-01-05T21:03:46;3.97;;;3.67;;
34184;SDS011;20454;48.100;11.776;2023-01-05T21:06:14;2.20;;;1.63;;
34184;SDS011;20454;48.100;11.776;2023-01-05T21:08:43;4.78;;;2.65;;
34184;SDS011;20454;48.100;11.776;2023-01-05T21:11:12;1.88;;;1.70;;
34184;SDS011;20454;48.100;11.776;2023-01-05T21:13:43;1.95;;;1.77;;
34184;SDS011;20454;48.100;11.776;2023-01-05T21:16:16;1.98;;;1.75;;
34184;SDS011;20454;48.100;11.776;2023-01-05T21:18:51;2.28;;;2.08;;
34184;SDS011;20454;48.100;11.776;2023-01-05T21:21:18;1.42;;;1.33;;
34184;SDS011;20454;48.100;11.776;2023-01-05T21:23:46;1.77;;;1.67;;
34184;SDS011;20454;48.100;11.776;2023-01-05T21:26:13;2.10;;;1.75;;
34184;SDS011;20454;48.100;11.776;2023-01-05T21:28:40;1.33;;;1.23;;
34184;SDS011;20454;48.100;11.776;2023-01-05T21:31:09;2.58;;;2.35;;
34184;SDS011;20454;48.100;11.776;2023-01-05T21:33:40;2.50;;;2.23;;
34184;SDS011;20454;48.100;11.776;2023-01-05T21:36:06;2.13;;;1.98;;
34184;SDS011;20454;48.100;11.776;2023-01-05T21:38:47;3.65;;;2.53;;
34184;SDS011;20454;48.100;11.776;2023-01-05T21:41:18;1.88;;;1.75;;
34184;SDS011;20454;48.100;11.776;2023-01-05T21:44:05;2.72;;;2.10;;
34184;SDS011;20454;48.100;11.776;2023-01-05T21:46:34;1.88;;;1.65;;
34184;SDS011;20454;48.100;11.776;2023-01-05T21:49:04;2.10;;;1.90;;
34184;SDS011;20454;48.100;11.776;2023-01-05T21:51:32;1.50;;;1.23;;
34184;SDS011;20454;48.100;11.776;2023-01-05T21:54:17;1.70;;;1.05;;
34184;SDS011;20454;48.100;11.776;2023-01-05T21:57:02;1.27;;;1.15;;
34184;SDS011;20454;48.100;11.776;2023-01-05T21:59:28;1.95;;;0.98;;
34184;SDS011;20454;48.100;11.776;2023-01-05T22:01:54;1.30;;;0.95;;
34184;SDS011;20454;48.100;11.776;2023-01-05T22:04:20;1.40;;;1.20;;
34184;SDS011;20454;48.100;11.776;2023-01-05T22:06:47;1.00;;;0.90;;
34184;SDS011;20454;48.100;11.776;2023-01-05T22:09:13;1.60;;;1.50;;
34184;SDS011;20454;48.100;11.776;2023-01-05T22:11:39;0.93;;;0.80;;
34184;SDS011;20454;48.100;11.776;2023-01-05T22:14:05;1.30;;;1.20;;
34184;SDS011;20454;48.100;11.776;2023-01-05T22:16:31;2.70;;;1.77;;
34184;SDS011;20454;48.100;11.776;2023-01-05T22:18:57;1.98;;;1.75;;
34184;SDS011;20454;48.100;11.776;2023-01-05T22:21:23;2.65;;;2.25;;
34184;SDS011;20454;48.100;11.776;2023-01-05T22:23:49;6.82;;;5.07;;
34184;SDS011;20454;48.100;11.776;2023-01-05T22:26:16;4.03;;;3.63;;
34184;SDS011;20454;48.100;11.776;2023-01-05T22:28:44;6.15;;;4.38;;
34184;SDS011;20454;48.100;11.776;2023-01-05T22:31:17;3.85;;;3.20;;
34184;SDS011;20454;48.100;11.776;2023-01-05T22:33:54;2.80;;;2.55;;
34184;SDS011;20454;48.100;11.776;2023-01-05T22:36:23;2.60;;;2.03;;
34184;SDS011;20454;48.100;11.776;2023-01-05T22:38:51;2.05;;;1.73;;
34184;SDS011;20454;48.100;11.776;2023-01-05T22:41:18;3.30;;;2.63;;
34184;SDS011;20454;48.100;11.776;2023-01-05T22:43:48;2.88;;;2.67;;
34184;SDS011;20454;48.100;11.776;2023-01-05T22:46:15;3.78;;;2.95;;
34184;SDS011;20454;48.100;11.776;2023-01-05T22:48:48;2.40;;;1.55;;
34184;SDS011;20454;48.100;11.776;2023-01-05T22:51:17;4.97;;;2.53;;
34184;SDS011;20454;48.100;11.776;2023-01-05T22:53:48;1.92;;;1.73;;
34184;SDS011;20454;48.100;11.776;2023-01-05T22:56:15;3.08;;;1.80;;
34184;SDS011;20454;48.100;11.776;2023-01-05T22:58:43;5.28;;;1.98;;
34184;SDS011;20454;48.100;11.776;2023-01-05T23:01:11;1.83;;;1.50;;
34184;SDS011;20454;48.100;11.776;2023-01-05T23:03:44;2.30;;;1.30;;
34184;SDS011;20454;48.100;11.776;2023-01-05T23:06:10;3.08;;;2.15;;
34184;SDS011;20454;48.100;11.776;2023-01-05T23:08:37;4.43;;;1.98;;
34184;SDS011;20454;48.100;11.776;2023-01-05T23:11:05;7.90;;;2.63;;
34184;SDS011;20454;48.100;11.776;2023-01-05T23:13:38;4.07;;;1.95;;
34184;SDS011;20454;48.100;11.776;2023-01-05T23:16:05;3.28;;;2.10;;
34184;SDS011;20454;48.100;11.776;2023-01-05T23:18:33;2.90;;;1.92;;
34184;SDS011;20454;48.100;11.776;2023-01-05T23:21:00;1.83;;;1.60;;
34184;SDS011;20454;48.100;11.776;2023-01-05T23:23:29;1.95;;;1.63;;
34184;SDS011;20454;48.100;11.776;2023-01-05T23:25:55;1.48;;;1.20;;
34184;SDS011;20454;48.100;11.776;2023-01-05T23:28:21;1.65;;;1.27;;
34184;SDS011;20454;48.100;11.776;2023-01-05T23:30:50;0.75;;;0.75;;
34184;SDS011;20454;48.100;11.776;2023-01-05T23:33:20;1.23;;;1.00;;
34184;SDS011;20454;48.100;11.776;2023-01-05T23:35:49;1.48;;;1.17;;
34184;SDS011;20454;48.100;11.776;2023-01-05T23:38:16;2.33;;;1.25;;
34184;SDS011;20454;48.100;11.776;2023-01-05T23:40:44;1.98;;;1.88;;
34184;SDS011;20454;48.100;11.776;2023-01-05T23:43:13;2.38;;;1.42;;
34184;SDS011;20454;48.100;11.776;2023-01-05T23:45:41;4.70;;;1.13;;
34184;SDS011;20454;48.100;11.776;2023-01-05T23:48:08;1.13;;;1.02;;
34184;SDS011;20454;48.100;11.776;2023-01-05T23:50:35;1.17;;;0.90;;